createdAt,value
2017-08-02T00:01:07.933Z,22.10
2017-08-02T00:03:35.411Z,21.84
2017-08-02T00:06:02.865Z,21.63
2017-08-02T00:08:30.347Z,21.58
2017-08-02T00:10:57.783Z,21.55
2017-08-02T00:13:25.236Z,21.35
2017-08-02T00:15:52.795Z,21.35
2017-08-02T00:18:20.241Z,21.51
2017-08-02T00:20:47.701Z,21.53
2017-08-02T00:23:15.165Z,21.74
2017-08-02T00:25:42.732Z,21.83
2017-08-02T00:28:10.165Z,21.57
2017-08-02T00:30:38.927Z,21.47
2017-08-02T00:33:06.431Z,21.32
2017-08-02T00:35:33.893Z,21.17
2017-08-02T00:38:01.438Z,21.22
2017-08-02T00:40:28.906Z,21.36
2017-08-02T00:42:56.383Z,21.29
2017-08-02T00:45:23.846Z,21.31
2017-08-02T00:47:51.286Z,21.26
2017-08-02T00:50:18.738Z,21.28
2017-08-02T00:52:46.294Z,21.28
2017-08-02T00:55:13.730Z,21.31
2017-08-02T00:57:41.309Z,21.30
2017-08-02T01:00:08.774Z,21.26
2017-08-02T01:02:36.351Z,21.38
2017-08-02T01:05:03.812Z,21.36
2017-08-02T01:07:31.280Z,21.48
2017-08-02T01:09:58.730Z,21.52
2017-08-02T01:12:26.191Z,21.54
2017-08-02T01:14:53.702Z,21.53
2017-08-02T01:17:21.185Z,21.23
2017-08-02T01:19:48.733Z,21.31
2017-08-02T01:22:16.173Z,20.92
2017-08-02T01:24:43.646Z,20.84
2017-08-02T01:27:12.578Z,20.69
2017-08-02T01:29:40.083Z,20.63
2017-08-02T01:32:07.526Z,20.62
2017-08-02T01:34:35.099Z,20.62
2017-08-02T01:37:02.656Z,20.54
2017-08-02T01:39:31.132Z,20.53
2017-08-02T01:41:58.586Z,20.44
2017-08-02T01:44:26.160Z,20.53
2017-08-02T01:46:53.619Z,20.53
2017-08-02T01:49:21.065Z,20.47
2017-08-02T01:51:48.824Z,20.46
2017-08-02T01:54:16.339Z,20.41
2017-08-02T01:56:43.808Z,20.26
2017-08-02T01:59:11.250Z,20.40
2017-08-02T02:01:38.756Z,20.48
2017-08-02T02:04:06.325Z,20.32
2017-08-02T02:06:33.788Z,20.19
2017-08-02T02:09:01.230Z,20.35
2017-08-02T02:11:28.695Z,20.28
2017-08-02T02:13:56.153Z,20.28
2017-08-02T02:16:23.614Z,20.24
2017-08-02T02:18:51.156Z,20.17
2017-08-02T02:21:18.642Z,20.18
2017-08-02T02:23:46.167Z,20.18
2017-08-02T02:26:13.636Z,20.10
2017-08-02T02:28:41.173Z,19.95
2017-08-02T02:31:09.567Z,19.98
2017-08-02T02:33:37.006Z,20.01
2017-08-02T02:36:04.486Z,20.11
2017-08-02T02:38:32.031Z,19.94
2017-08-02T02:40:59.492Z,19.80
2017-08-02T02:43:27.235Z,19.90
2017-08-02T02:45:54.674Z,19.90
2017-08-02T02:48:22.165Z,19.97
2017-08-02T02:50:49.617Z,20.13
2017-08-02T02:53:17.081Z,20.34
2017-08-02T02:55:45.046Z,20.40
2017-08-02T02:58:12.610Z,20.35
2017-08-02T03:00:40.169Z,20.03
2017-08-02T03:03:07.724Z,20.06
2017-08-02T03:05:35.287Z,20.11
2017-08-02T03:08:02.773Z,20.11
2017-08-02T03:10:30.279Z,20.06
2017-08-02T03:12:57.730Z,20.08
2017-08-02T03:15:25.191Z,19.87
2017-08-02T03:17:52.658Z,19.86
2017-08-02T03:20:20.232Z,19.95
2017-08-02T03:22:47.787Z,19.88
2017-08-02T03:25:15.278Z,19.69
2017-08-02T03:27:42.802Z,19.54
2017-08-02T03:30:10.272Z,19.60
2017-08-02T03:32:37.743Z,19.59
2017-08-02T03:35:05.288Z,19.57
2017-08-02T03:37:32.738Z,19.37
2017-08-02T03:40:00.199Z,19.35
2017-08-02T03:42:27.750Z,19.30
2017-08-02T03:44:55.393Z,19.42
2017-08-02T03:47:22.894Z,19.28
2017-08-02T03:49:50.346Z,19.24
2017-08-02T03:52:17.869Z,19.18
2017-08-02T03:54:45.310Z,19.09
2017-08-02T03:57:14.704Z,19.14
2017-08-02T03:59:42.193Z,19.15
2017-08-02T04:02:09.748Z,19.16
2017-08-02T04:04:37.187Z,19.05
2017-08-02T04:07:04.661Z,19.00
2017-08-02T04:09:32.110Z,19.02
2017-08-02T04:11:59.681Z,18.95
2017-08-02T04:14:27.123Z,18.96
2017-08-02T04:16:54.606Z,19.09
2017-08-02T04:19:22.141Z,19.03
2017-08-02T04:21:50.073Z,18.95
2017-08-02T04:24:17.531Z,18.90
2017-08-02T04:26:44.975Z,18.91
2017-08-02T04:29:12.503Z,18.94
2017-08-02T04:31:39.959Z,19.05
2017-08-02T04:34:07.518Z,19.10
2017-08-02T04:36:35.060Z,18.99
2017-08-02T04:39:02.522Z,18.93
2017-08-02T04:41:29.977Z,18.80
2017-08-02T04:43:57.467Z,18.93
2017-08-02T04:46:24.910Z,18.93
2017-08-02T04:48:52.437Z,18.98
2017-08-02T04:51:19.895Z,19.02
2017-08-02T04:53:47.351Z,19.18
2017-08-02T04:56:14.930Z,19.14
2017-08-02T04:58:42.387Z,19.15
2017-08-02T05:01:09.872Z,19.05
2017-08-02T05:03:37.323Z,19.09
2017-08-02T05:06:04.797Z,19.19
2017-08-02T05:08:32.312Z,19.25
2017-08-02T05:10:59.775Z,19.44
2017-08-02T05:13:27.315Z,19.57
2017-08-02T05:15:54.871Z,19.71
2017-08-02T05:18:22.331Z,20.17
2017-08-02T05:20:49.774Z,20.49
2017-08-02T05:23:17.345Z,20.92
2017-08-02T05:25:44.782Z,21.53
2017-08-02T05:28:12.243Z,21.67
2017-08-02T05:30:39.731Z,21.75
2017-08-02T05:33:07.286Z,22.02
2017-08-02T05:35:34.841Z,22.65
2017-08-02T05:38:02.303Z,23.08
2017-08-02T05:40:29.749Z,23.21
2017-08-02T05:42:57.206Z,23.28
2017-08-02T05:45:24.678Z,23.20
2017-08-02T05:47:52.213Z,23.38
2017-08-02T05:50:19.670Z,23.73
2017-08-02T05:52:47.130Z,24.42
2017-08-02T05:55:14.599Z,24.13
2017-08-02T05:57:42.067Z,24.21
2017-08-02T06:00:09.515Z,24.03
2017-08-02T06:02:36.998Z,23.63
2017-08-02T06:05:04.437Z,23.66
2017-08-02T06:07:31.923Z,24.05
2017-08-02T06:09:59.426Z,23.89
2017-08-02T06:12:26.891Z,24.03
2017-08-02T06:14:54.362Z,24.25
2017-08-02T06:17:21.906Z,23.79
2017-08-02T06:19:49.369Z,24.12
2017-08-02T06:22:16.829Z,24.16
2017-08-02T06:24:44.298Z,23.46
2017-08-02T06:27:11.822Z,23.69
2017-08-02T06:29:39.282Z,24.25
2017-08-02T06:32:06.735Z,24.13
2017-08-02T06:34:34.395Z,24.07
2017-08-02T06:37:01.843Z,24.23
2017-08-02T06:39:29.328Z,24.61
2017-08-02T06:41:56.790Z,24.25
2017-08-02T06:44:24.247Z,24.23
2017-08-02T06:46:51.815Z,23.94
2017-08-02T06:49:19.343Z,23.94
2017-08-02T06:51:47.060Z,24.29
2017-08-02T06:54:14.563Z,24.32
2017-08-02T06:56:42.022Z,24.35
2017-08-02T06:59:09.465Z,24.23
2017-08-02T07:01:36.923Z,24.06
2017-08-02T07:04:05.003Z,24.35
2017-08-02T07:06:32.562Z,24.60
2017-08-02T07:09:00.124Z,24.51
2017-08-02T07:11:27.674Z,24.50
2017-08-02T07:13:55.115Z,24.45
2017-08-02T07:16:22.822Z,24.09
2017-08-02T07:18:50.361Z,24.15
2017-08-02T07:21:17.911Z,24.52
2017-08-02T07:23:45.349Z,24.24
2017-08-02T07:26:12.846Z,24.66
2017-08-02T07:28:40.363Z,24.94
2017-08-02T07:31:09.578Z,25.14
2017-08-02T07:33:37.040Z,24.73
2017-08-02T07:36:04.554Z,24.73
2017-08-02T07:38:32.019Z,24.41
2017-08-02T07:40:59.645Z,24.27
2017-08-02T07:43:27.182Z,24.42
2017-08-02T07:45:54.633Z,24.58
2017-08-02T07:48:22.255Z,24.36
2017-08-02T07:50:49.751Z,24.47
2017-08-02T07:53:17.549Z,24.69
2017-08-02T07:55:45.063Z,25.13
2017-08-02T07:58:12.518Z,25.19
2017-08-02T08:00:39.974Z,25.30
2017-08-02T08:03:07.427Z,25.68
2017-08-02T08:05:35.079Z,25.63
2017-08-02T08:08:02.562Z,25.85
2017-08-02T08:10:30.003Z,25.59
2017-08-02T08:12:57.585Z,25.50
2017-08-02T08:15:25.135Z,25.32
2017-08-02T08:17:52.688Z,25.74
2017-08-02T08:20:20.179Z,25.92
2017-08-02T08:22:47.637Z,26.09
2017-08-02T08:25:15.160Z,26.02
2017-08-02T08:27:42.616Z,26.27
2017-08-02T08:30:10.176Z,26.51
2017-08-02T08:32:37.618Z,26.27
2017-08-02T08:35:05.074Z,26.41
2017-08-02T08:37:32.514Z,26.16
2017-08-02T08:39:59.991Z,26.13
2017-08-02T08:42:27.431Z,26.50
2017-08-02T08:44:54.895Z,26.74
2017-08-02T08:47:22.341Z,26.81
2017-08-02T08:49:49.826Z,26.97
2017-08-02T08:52:17.275Z,27.42
2017-08-02T08:54:44.739Z,27.16
2017-08-02T08:57:12.191Z,27.37
2017-08-02T08:59:39.656Z,26.92
2017-08-02T09:02:07.098Z,27.31
2017-08-02T09:04:34.622Z,27.35
2017-08-02T09:07:02.087Z,27.60
2017-08-02T09:09:29.558Z,27.77
2017-08-02T09:11:57.043Z,27.43
2017-08-02T09:14:24.498Z,27.50
2017-08-02T09:16:51.973Z,27.30
2017-08-02T09:19:19.511Z,27.42
2017-08-02T09:21:47.063Z,27.65
2017-08-02T09:24:14.515Z,27.93
2017-08-02T09:26:41.976Z,28.01
2017-08-02T09:29:09.432Z,28.42
2017-08-02T09:31:36.995Z,28.42
2017-08-02T09:34:04.455Z,28.00
2017-08-02T09:36:31.918Z,28.04
2017-08-02T09:38:59.523Z,28.14
2017-08-02T09:41:27.038Z,28.24
2017-08-02T09:43:54.589Z,27.70
2017-08-02T09:46:22.214Z,28.03
2017-08-02T09:48:49.707Z,28.49
2017-08-02T09:51:17.151Z,28.32
2017-08-02T09:53:44.607Z,27.92
2017-08-02T09:56:12.077Z,28.12
2017-08-02T09:58:42.854Z,28.56
2017-08-02T10:01:10.339Z,28.98
2017-08-02T10:03:37.825Z,28.72
2017-08-02T10:06:05.262Z,28.67
2017-08-02T10:08:32.837Z,29.53
2017-08-02T10:11:00.373Z,29.53
2017-08-02T10:13:27.833Z,29.07
2017-08-02T10:15:55.279Z,28.95
2017-08-02T10:18:22.766Z,29.47
2017-08-02T10:20:50.206Z,28.70
2017-08-02T10:23:17.674Z,29.17
2017-08-02T10:25:45.187Z,29.17
2017-08-02T10:28:12.670Z,29.19
2017-08-02T10:30:40.218Z,29.38
2017-08-02T10:33:07.668Z,29.90
2017-08-02T10:35:35.298Z,29.41
2017-08-02T10:38:02.856Z,29.16
2017-08-02T10:40:30.385Z,29.45
2017-08-02T10:42:57.946Z,29.20
2017-08-02T10:45:25.495Z,29.60
2017-08-02T10:47:52.950Z,29.55
2017-08-02T10:50:23.510Z,29.31
2017-08-02T10:52:50.954Z,29.52
2017-08-02T10:55:18.413Z,29.75
2017-08-02T10:57:45.859Z,29.57
2017-08-02T11:00:13.419Z,29.42
2017-08-02T11:02:40.900Z,29.60
2017-08-02T11:05:08.496Z,29.42
2017-08-02T11:07:35.989Z,29.57
2017-08-02T11:10:03.548Z,29.74
2017-08-02T11:12:31.006Z,29.11
2017-08-02T11:14:58.464Z,29.58
2017-08-02T11:17:26.010Z,29.30
2017-08-02T11:19:53.478Z,29.36
2017-08-02T11:22:20.944Z,29.39
2017-08-02T11:24:48.478Z,29.29
2017-08-02T11:27:16.049Z,29.23
2017-08-02T11:29:43.501Z,29.07
2017-08-02T11:32:11.098Z,28.87
2017-08-02T11:34:38.551Z,28.76
2017-08-02T11:37:06.009Z,29.07
2017-08-02T11:39:33.532Z,29.25
2017-08-02T11:42:01.011Z,29.19
2017-08-02T11:44:28.522Z,29.20
2017-08-02T11:46:55.967Z,29.29
2017-08-02T11:49:23.457Z,29.26
2017-08-02T11:51:50.894Z,29.34
2017-08-02T11:54:18.346Z,29.25
2017-08-02T11:56:45.791Z,29.40
2017-08-02T11:59:13.292Z,29.31
2017-08-02T12:01:40.735Z,29.36
2017-08-02T12:04:08.199Z,29.32
2017-08-02T12:06:36.281Z,29.29
2017-08-02T12:09:03.773Z,29.41
2017-08-02T12:11:31.215Z,29.17
2017-08-02T12:13:58.682Z,29.33
2017-08-02T12:16:26.129Z,29.23
2017-08-02T12:18:54.813Z,29.53
2017-08-02T12:21:22.290Z,30.02
2017-08-02T12:23:49.735Z,30.07
2017-08-02T12:26:17.676Z,29.99
2017-08-02T12:28:45.182Z,29.89
2017-08-02T12:31:13.140Z,29.83
2017-08-02T12:33:40.615Z,29.90
2017-08-02T12:36:08.108Z,30.35
2017-08-02T12:38:35.575Z,30.03
2017-08-02T12:41:03.121Z,29.95
2017-08-02T12:43:30.783Z,29.92
2017-08-02T12:45:58.268Z,29.64
2017-08-02T12:48:25.797Z,29.86
2017-08-02T12:50:53.279Z,30.07
2017-08-02T12:53:20.727Z,29.49
2017-08-02T12:55:48.179Z,29.60
2017-08-02T12:58:15.713Z,29.41
2017-08-02T13:00:43.157Z,29.69
2017-08-02T13:03:10.631Z,29.59
2017-08-02T13:05:38.086Z,29.59
2017-08-02T13:08:05.653Z,29.65
2017-08-02T13:10:33.199Z,29.56
2017-08-02T13:13:00.658Z,28.97
2017-08-02T13:15:28.114Z,29.29
2017-08-02T13:17:55.678Z,29.39
2017-08-02T13:20:23.115Z,29.48
2017-08-02T13:22:50.575Z,29.60
2017-08-02T13:25:18.024Z,29.58
2017-08-02T13:27:45.490Z,29.73
2017-08-02T13:30:12.960Z,29.75
2017-08-02T13:32:40.434Z,29.85
2017-08-02T13:35:07.969Z,29.78
2017-08-02T13:37:35.536Z,29.71
2017-08-02T13:40:02.975Z,29.42
2017-08-02T13:42:30.446Z,29.26
2017-08-02T13:44:57.898Z,29.35
2017-08-02T13:47:25.379Z,29.26
2017-08-02T13:49:52.906Z,29.38
2017-08-02T13:52:20.375Z,29.53
2017-08-02T13:54:47.846Z,29.41
2017-08-02T13:57:15.351Z,29.07
2017-08-02T13:59:42.818Z,29.19
2017-08-02T14:02:10.303Z,29.20
2017-08-02T14:04:38.685Z,28.92
2017-08-02T14:07:06.239Z,29.08
2017-08-02T14:09:33.794Z,29.22
2017-08-02T14:12:01.239Z,28.91
2017-08-02T14:14:28.735Z,28.70
2017-08-02T14:16:56.184Z,28.89
2017-08-02T14:19:23.721Z,28.91
2017-08-02T14:21:52.421Z,29.04
2017-08-02T14:24:19.904Z,29.17
2017-08-02T14:26:47.438Z,29.54
2017-08-02T14:29:14.891Z,29.67
2017-08-02T14:31:42.350Z,29.78
2017-08-02T14:34:09.918Z,29.81
2017-08-02T14:36:37.472Z,29.78
2017-08-02T14:39:04.917Z,29.62
2017-08-02T14:41:32.465Z,29.36
2017-08-02T14:43:59.932Z,29.48
2017-08-02T14:46:27.482Z,29.37
2017-08-02T14:48:54.938Z,29.34
2017-08-02T14:51:22.404Z,29.16
2017-08-02T14:53:49.850Z,29.53
2017-08-02T14:56:17.432Z,29.42
2017-08-02T14:58:44.915Z,29.39
2017-08-02T15:01:12.403Z,29.30
2017-08-02T15:03:39.944Z,29.25
2017-08-02T15:06:07.415Z,29.38
2017-08-02T15:08:34.867Z,29.25
2017-08-02T15:11:02.392Z,29.50
2017-08-02T15:13:29.922Z,29.51
2017-08-02T15:15:57.357Z,29.82
2017-08-02T15:18:26.130Z,29.82
2017-08-02T15:20:53.663Z,30.18
2017-08-02T15:23:21.181Z,30.13
2017-08-02T15:25:48.636Z,29.76
2017-08-02T15:28:16.103Z,29.71
2017-08-02T15:30:43.664Z,29.62
2017-08-02T15:33:11.284Z,29.63
2017-08-02T15:35:39.027Z,29.34
2017-08-02T15:38:06.676Z,29.68
2017-08-02T15:40:34.191Z,29.89
2017-08-02T15:43:01.910Z,30.10
2017-08-02T15:45:29.529Z,30.00
2017-08-02T15:47:57.173Z,29.70
2017-08-02T15:50:24.877Z,29.66
2017-08-02T15:52:52.453Z,29.64
2017-08-02T15:55:19.947Z,29.40
2017-08-02T15:57:47.551Z,29.32
2017-08-02T16:00:15.109Z,29.24
2017-08-02T16:02:42.554Z,29.27
2017-08-02T16:05:10.090Z,29.15
2017-08-02T16:07:37.545Z,28.99
2017-08-02T16:10:05.023Z,28.94
2017-08-02T16:12:32.560Z,29.06
2017-08-02T16:15:01.715Z,29.18
2017-08-02T16:17:29.187Z,29.17
2017-08-02T16:19:56.671Z,29.13
2017-08-02T16:22:24.223Z,29.18
2017-08-02T16:24:51.685Z,29.15
2017-08-02T16:27:19.598Z,29.36
2017-08-02T16:29:47.097Z,29.35
2017-08-02T16:32:14.564Z,29.25
2017-08-02T16:34:42.076Z,29.19
2017-08-02T16:37:09.538Z,29.28
2017-08-02T16:39:37.030Z,29.01
2017-08-02T16:42:04.546Z,28.84
2017-08-02T16:44:31.986Z,28.89
2017-08-02T16:46:59.518Z,28.38
2017-08-02T16:49:27.090Z,28.37
2017-08-02T16:51:54.538Z,28.61
2017-08-02T16:54:22.080Z,28.24
2017-08-02T16:56:49.555Z,28.21
2017-08-02T16:59:17.098Z,28.37
2017-08-02T17:01:44.549Z,28.19
2017-08-02T17:04:12.020Z,28.30
2017-08-02T17:06:39.640Z,28.48
2017-08-02T17:09:07.129Z,28.25
2017-08-02T17:11:34.688Z,28.37
2017-08-02T17:14:02.246Z,28.13
2017-08-02T17:16:29.703Z,28.16
2017-08-02T17:18:57.257Z,28.14
2017-08-02T17:21:24.810Z,28.13
2017-08-02T17:23:52.294Z,28.10
2017-08-02T17:26:19.784Z,28.08
2017-08-02T17:28:47.697Z,27.79
2017-08-02T17:31:15.159Z,27.67
2017-08-02T17:33:42.606Z,27.58
2017-08-02T17:36:10.179Z,27.62
2017-08-02T17:38:37.621Z,27.74
2017-08-02T17:41:05.137Z,27.74
2017-08-02T17:43:32.578Z,27.48
2017-08-02T17:46:00.103Z,27.40
2017-08-02T17:48:27.543Z,27.38
2017-08-02T17:50:54.987Z,27.22
2017-08-02T17:53:22.451Z,27.36
2017-08-02T17:55:49.956Z,27.32
2017-08-02T17:58:17.489Z,26.91
2017-08-02T18:00:44.962Z,26.62
2017-08-02T18:03:12.428Z,26.47
2017-08-02T18:05:39.946Z,26.88
2017-08-02T18:08:07.523Z,27.16
2017-08-02T18:10:34.973Z,27.29
2017-08-02T18:13:02.523Z,27.04
2017-08-02T18:15:29.996Z,26.58
2017-08-02T18:17:57.555Z,26.77
2017-08-02T18:20:25.104Z,26.91
2017-08-02T18:22:52.659Z,26.64
2017-08-02T18:25:20.140Z,26.39
2017-08-02T18:27:47.608Z,26.11
2017-08-02T18:30:15.083Z,26.03
2017-08-02T18:32:42.530Z,26.08
2017-08-02T18:35:10.043Z,26.13
2017-08-02T18:37:37.487Z,26.17
2017-08-02T18:40:05.056Z,25.91
2017-08-02T18:42:32.498Z,25.79
2017-08-02T18:45:00.011Z,26.10
2017-08-02T18:47:27.527Z,26.10
2017-08-02T18:49:55.006Z,26.09
2017-08-02T18:52:22.447Z,25.88
2017-08-02T18:54:50.002Z,25.69
2017-08-02T18:57:17.559Z,25.35
2017-08-02T18:59:45.074Z,25.32
2017-08-02T19:02:12.537Z,25.50
2017-08-02T19:04:39.974Z,25.42
2017-08-02T19:07:07.441Z,25.27
2017-08-02T19:09:34.969Z,25.19
2017-08-02T19:12:02.470Z,25.07
2017-08-02T19:14:29.974Z,25.11
2017-08-02T19:16:57.515Z,25.09
2017-08-02T19:19:24.960Z,24.99
2017-08-02T19:21:52.537Z,24.57
2017-08-02T19:24:20.047Z,24.79
2017-08-02T19:26:47.547Z,24.94
2017-08-02T19:29:14.991Z,24.77
2017-08-02T19:31:42.463Z,24.51
2017-08-02T19:34:10.024Z,24.33
2017-08-02T19:36:37.462Z,24.40
2017-08-02T19:39:05.039Z,24.48
2017-08-02T19:41:32.489Z,24.54
2017-08-02T19:44:00.043Z,24.50
2017-08-02T19:46:27.491Z,24.48
2017-08-02T19:48:54.954Z,24.43
2017-08-02T19:51:22.402Z,24.54
2017-08-02T19:53:49.876Z,24.35
2017-08-02T19:56:17.323Z,24.54
2017-08-02T19:58:44.794Z,24.47
2017-08-02T20:01:12.330Z,24.44
2017-08-02T20:03:39.910Z,24.30
2017-08-02T20:06:07.363Z,23.86
2017-08-02T20:08:34.825Z,23.70
2017-08-02T20:11:02.294Z,23.65
2017-08-02T20:13:29.829Z,23.49
2017-08-02T20:15:57.412Z,23.47
2017-08-02T20:18:24.962Z,23.63
2017-08-02T20:20:52.506Z,23.65
2017-08-02T20:23:19.962Z,23.64
2017-08-02T20:25:47.524Z,23.66
2017-08-02T20:28:15.002Z,23.54
2017-08-02T20:30:42.948Z,23.46
2017-08-02T20:33:10.392Z,23.41
2017-08-02T20:35:37.862Z,23.38
2017-08-02T20:38:05.416Z,23.11
2017-08-02T20:40:32.870Z,22.99
2017-08-02T20:43:00.335Z,23.00
2017-08-02T20:45:27.791Z,22.80
2017-08-02T20:47:55.304Z,22.53
2017-08-02T20:50:22.806Z,22.33
2017-08-02T20:52:50.254Z,22.30
2017-08-02T20:55:17.698Z,22.30
2017-08-02T20:57:45.175Z,22.27
2017-08-02T21:00:12.625Z,22.06
2017-08-02T21:02:40.186Z,22.09
2017-08-02T21:05:07.628Z,22.05
2017-08-02T21:07:35.204Z,22.05
2017-08-02T21:10:02.647Z,22.14
2017-08-02T21:12:30.108Z,22.25
2017-08-02T21:14:57.626Z,22.23
2017-08-02T21:17:25.093Z,22.30
2017-08-02T21:19:52.534Z,22.32
2017-08-02T21:22:19.995Z,22.08
2017-08-02T21:24:47.435Z,21.93
2017-08-02T21:27:14.876Z,21.95
2017-08-02T21:29:42.780Z,22.38
2017-08-02T21:32:10.280Z,21.88
2017-08-02T21:34:37.898Z,21.80
2017-08-02T21:37:05.362Z,21.81
2017-08-02T21:39:32.831Z,21.84
2017-08-02T21:42:00.465Z,21.94
2017-08-02T21:44:27.978Z,21.97
2017-08-02T21:46:55.486Z,21.92
2017-08-02T21:49:22.956Z,22.00
2017-08-02T21:51:50.448Z,21.99
2017-08-02T21:54:17.914Z,22.14
2017-08-02T21:56:45.459Z,21.75
2017-08-02T21:59:12.910Z,21.71
2017-08-02T22:01:40.350Z,21.50
2017-08-02T22:04:07.833Z,21.24
2017-08-02T22:06:35.402Z,21.46
2017-08-02T22:09:02.874Z,21.49
2017-08-02T22:11:30.349Z,21.34
2017-08-02T22:13:58.616Z,21.36
2017-08-02T22:16:26.102Z,21.13
2017-08-02T22:18:53.716Z,21.15
2017-08-02T22:21:21.246Z,21.40
2017-08-02T22:23:48.741Z,21.65
2017-08-02T22:26:16.290Z,21.61
2017-08-02T22:28:43.738Z,21.59
2017-08-02T22:31:14.854Z,21.58
2017-08-02T22:33:42.297Z,21.34
2017-08-02T22:36:09.753Z,21.37
2017-08-02T22:38:37.198Z,20.96
2017-08-02T22:41:04.692Z,20.86
2017-08-02T22:43:32.135Z,21.17
2017-08-02T22:45:59.604Z,21.30
2017-08-02T22:48:27.046Z,21.01
2017-08-02T22:50:54.655Z,20.89
2017-08-02T22:53:22.169Z,20.93
2017-08-02T22:55:49.737Z,20.88
2017-08-02T22:58:17.183Z,21.06
2017-08-02T23:00:44.638Z,21.15
2017-08-02T23:03:12.213Z,21.21
2017-08-02T23:05:39.646Z,21.22
2017-08-02T23:08:07.118Z,21.49
2017-08-02T23:10:34.558Z,21.21
2017-08-02T23:13:02.026Z,21.04
2017-08-02T23:15:29.471Z,21.09
2017-08-02T23:17:56.975Z,21.37
2017-08-02T23:20:24.498Z,21.28
2017-08-02T23:22:51.979Z,21.26
2017-08-02T23:25:19.418Z,21.41
2017-08-02T23:27:46.982Z,21.19
2017-08-02T23:30:14.417Z,21.20
2017-08-02T23:32:42.115Z,21.04
2017-08-02T23:35:09.658Z,20.94
2017-08-02T23:37:37.140Z,21.01
2017-08-02T23:40:04.673Z,20.96
2017-08-02T23:42:32.110Z,20.94
2017-08-02T23:44:59.574Z,21.00
2017-08-02T23:47:27.038Z,21.05
2017-08-02T23:49:54.499Z,21.27
2017-08-02T23:52:22.049Z,21.30
2017-08-02T23:54:49.606Z,21.08
2017-08-02T23:57:17.133Z,20.96
2017-08-02T23:59:44.596Z,20.63
